createdAt,value
2019-04-04T00:00:37.828Z,10.10
2019-04-04T00:03:07.352Z,10.10
2019-04-04T00:05:36.719Z,10.00
2019-04-04T00:08:06.434Z,10.10
2019-04-04T00:10:37.444Z,10.00
2019-04-04T00:13:06.890Z,10.00
2019-04-04T00:15:41.787Z,10.00
2019-04-04T00:18:14.012Z,10.00
2019-04-04T00:20:46.231Z,9.90
2019-04-04T00:23:22.620Z,9.90
2019-04-04T00:25:56.450Z,9.90
2019-04-04T00:28:37.608Z,9.90
2019-04-04T00:31:07.501Z,9.90
2019-04-04T00:33:37.088Z,9.90
2019-04-04T00:36:06.925Z,9.90
2019-04-04T00:38:37.989Z,9.80
2019-04-04T00:41:08.100Z,9.80
2019-04-04T00:43:37.721Z,9.80
2019-04-04T00:46:07.210Z,9.80
2019-04-04T00:48:37.032Z,9.80
2019-04-04T00:51:07.925Z,9.80
2019-04-04T00:53:38.535Z,9.80
2019-04-04T00:56:08.306Z,9.80
2019-04-04T00:58:38.295Z,9.70
2019-04-04T01:01:08.254Z,9.80
2019-04-04T01:03:38.073Z,9.80
2019-04-04T01:06:07.881Z,9.70
2019-04-04T01:08:38.807Z,9.70
2019-04-04T01:11:08.872Z,9.70
2019-04-04T01:13:38.975Z,9.70
2019-04-04T01:16:11.978Z,9.70
2019-04-04T01:18:41.879Z,9.60
2019-04-04T01:21:11.823Z,9.60
2019-04-04T01:23:41.819Z,9.60
2019-04-04T01:26:11.816Z,9.50
2019-04-04T01:28:41.831Z,9.50
2019-04-04T01:31:14.631Z,9.40
2019-04-04T01:33:43.178Z,9.40
2019-04-04T01:36:13.194Z,9.40
2019-04-04T01:38:42.906Z,9.30
2019-04-04T01:41:12.670Z,9.30
2019-04-04T01:43:42.545Z,9.30
2019-04-04T01:46:13.043Z,9.30
2019-04-04T01:48:43.619Z,9.20
2019-04-04T01:51:13.330Z,9.20
2019-04-04T01:53:43.027Z,9.20
2019-04-04T01:56:12.655Z,9.10
2019-04-04T01:58:42.634Z,9.10
2019-04-04T02:01:12.287Z,9.10
2019-04-04T02:03:41.787Z,9.10
2019-04-04T02:06:11.811Z,9.00
2019-04-04T02:08:47.395Z,9.00
2019-04-04T02:11:16.944Z,9.00
2019-04-04T02:13:46.433Z,8.90
2019-04-04T02:16:16.940Z,8.90
2019-04-04T02:18:47.371Z,8.90
2019-04-04T02:21:17.373Z,8.80
2019-04-04T02:23:47.142Z,8.80
2019-04-04T02:26:22.900Z,8.70
2019-04-04T02:28:52.356Z,8.70
2019-04-04T02:31:22.187Z,8.70
2019-04-04T02:33:51.597Z,8.70
2019-04-04T02:36:21.017Z,8.60
2019-04-04T02:39:07.584Z,8.60
2019-04-04T02:41:37.025Z,8.60
2019-04-04T02:44:06.972Z,8.60
2019-04-04T02:46:36.396Z,8.60
2019-04-04T02:49:06.020Z,8.60
2019-04-04T02:51:40.239Z,8.60
2019-04-04T02:54:06.834Z,8.60
2019-04-04T02:56:36.463Z,8.50
2019-04-04T02:59:06.238Z,8.50
2019-04-04T03:01:35.777Z,8.40
2019-04-04T03:04:05.452Z,8.40
2019-04-04T03:06:34.957Z,8.40
2019-04-04T03:09:09.091Z,8.30
2019-04-04T03:11:37.395Z,8.30
2019-04-04T03:14:06.805Z,8.30
2019-04-04T03:16:36.150Z,8.20
2019-04-04T03:19:09.883Z,8.20
2019-04-04T03:21:36.552Z,8.20
2019-04-04T03:24:07.104Z,8.10
2019-04-04T03:26:36.677Z,8.20
2019-04-04T03:29:09.862Z,8.10
2019-04-04T03:31:38.847Z,8.10
2019-04-04T03:34:11.579Z,8.10
2019-04-04T03:36:39.567Z,8.10
2019-04-04T03:39:08.984Z,8.10
2019-04-04T03:41:38.400Z,8.10
2019-04-04T03:44:07.823Z,8.10
2019-04-04T03:46:38.878Z,8.10
2019-04-04T03:49:08.651Z,8.00
2019-04-04T03:51:38.331Z,8.00
2019-04-04T03:54:13.129Z,8.00
2019-04-04T03:56:42.742Z,8.00
2019-04-04T03:59:12.294Z,8.00
2019-04-04T04:01:45.497Z,8.10
2019-04-04T04:04:12.828Z,8.00
2019-04-04T04:06:43.200Z,8.00
2019-04-04T04:09:12.937Z,8.00
2019-04-04T04:11:42.429Z,7.90
2019-04-04T04:14:11.856Z,8.00
2019-04-04T04:16:41.301Z,7.90
2019-04-04T04:19:10.730Z,7.90
2019-04-04T04:21:42.755Z,7.80
2019-04-04T04:24:11.225Z,7.80
2019-04-04T04:26:41.895Z,7.80
2019-04-04T04:29:11.877Z,7.70
2019-04-04T04:31:41.400Z,7.70
2019-04-04T04:34:10.818Z,7.70
2019-04-04T04:36:40.241Z,7.70
2019-04-04T04:39:09.618Z,7.70
2019-04-04T04:41:39.003Z,7.70
2019-04-04T04:44:08.298Z,7.70
2019-04-04T04:46:37.961Z,7.80
2019-04-04T04:49:07.387Z,7.80
2019-04-04T04:51:36.793Z,7.80
2019-04-04T04:54:06.266Z,7.80
2019-04-04T04:56:35.772Z,7.90
2019-04-04T04:59:05.249Z,7.90
2019-04-04T05:01:34.929Z,7.90
2019-04-04T05:04:04.709Z,8.00
2019-04-04T05:06:35.609Z,8.00
2019-04-04T05:09:06.779Z,8.10
2019-04-04T05:11:36.198Z,8.20
2019-04-04T05:14:05.766Z,8.30
2019-04-04T05:16:35.907Z,8.30
2019-04-04T05:19:06.267Z,8.50
2019-04-04T05:21:35.759Z,8.50
2019-04-04T05:24:05.288Z,8.60
2019-04-04T05:26:35.191Z,8.60
2019-04-04T05:29:06.690Z,8.70
2019-04-04T05:31:36.083Z,8.70
2019-04-04T05:34:05.975Z,8.80
2019-04-04T05:36:37.071Z,8.80
2019-04-04T05:39:08.329Z,8.80
2019-04-04T05:41:40.936Z,8.90
2019-04-04T05:44:10.437Z,9.00
2019-04-04T05:46:39.893Z,9.10
2019-04-04T05:49:09.331Z,9.10
2019-04-04T05:51:38.860Z,9.20
2019-04-04T05:54:08.436Z,9.30
2019-04-04T05:56:38.202Z,9.30
2019-04-04T05:59:07.643Z,9.40
2019-04-04T06:01:37.414Z,9.50
2019-04-04T06:04:06.943Z,9.70
2019-04-04T06:06:36.404Z,9.80
2019-04-04T06:09:08.156Z,9.90
2019-04-04T06:11:37.570Z,10.10
2019-04-04T06:14:07.021Z,10.20
2019-04-04T06:16:36.493Z,10.40
2019-04-04T06:19:06.031Z,10.50
2019-04-04T06:21:35.495Z,10.70
2019-04-04T06:24:05.031Z,10.90
2019-04-04T06:26:36.111Z,11.00
2019-04-04T06:29:05.860Z,11.20
2019-04-04T06:31:37.065Z,11.40
2019-04-04T06:34:09.903Z,11.70
2019-04-04T06:36:37.710Z,11.80
2019-04-04T06:39:08.657Z,12.10
2019-04-04T06:41:38.277Z,12.40
2019-04-04T06:44:07.771Z,12.70
2019-04-04T06:46:37.221Z,13.00
2019-04-04T06:49:06.615Z,13.30
2019-04-04T06:51:36.052Z,13.40
2019-04-04T06:54:05.537Z,13.30
2019-04-04T06:56:35.033Z,13.30
2019-04-04T06:59:04.470Z,13.20
2019-04-04T07:01:33.879Z,13.20
2019-04-04T07:04:03.603Z,13.20
2019-04-04T07:06:33.002Z,13.20
2019-04-04T07:09:02.655Z,13.20
2019-04-04T07:11:34.803Z,13.10
2019-04-04T07:14:03.153Z,13.20
2019-04-04T07:16:36.213Z,13.20
2019-04-04T07:19:03.891Z,13.30
2019-04-04T07:21:33.337Z,13.30
2019-04-04T07:24:02.719Z,13.50
2019-04-04T07:26:32.016Z,13.80
2019-04-04T07:29:01.386Z,14.20
2019-04-04T07:31:33.275Z,14.30
2019-04-04T07:34:01.861Z,14.40
2019-04-04T07:36:31.269Z,14.50
2019-04-04T07:39:01.048Z,14.50
2019-04-04T07:41:30.633Z,14.60
2019-04-04T07:44:00.164Z,14.70
2019-04-04T07:46:29.602Z,14.70
2019-04-04T07:48:59.386Z,14.80
2019-04-04T07:51:30.279Z,14.90
2019-04-04T07:54:00.310Z,14.90
2019-04-04T07:56:30.157Z,15.00
2019-04-04T07:58:59.752Z,15.00
2019-04-04T08:01:29.290Z,15.00
2019-04-04T08:03:58.753Z,15.00
2019-04-04T08:06:28.146Z,15.10
2019-04-04T08:08:57.591Z,15.10
2019-04-04T08:11:27.393Z,15.00
2019-04-04T08:13:57.119Z,15.00
2019-04-04T08:16:26.880Z,15.00
2019-04-04T08:18:56.617Z,15.00
2019-04-04T08:21:27.771Z,14.90
2019-04-04T08:23:57.575Z,14.90
2019-04-04T08:26:27.275Z,15.00
2019-04-04T08:28:56.688Z,15.00
2019-04-04T08:31:26.320Z,15.00
2019-04-04T08:33:55.906Z,15.00
2019-04-04T08:36:25.337Z,15.10
2019-04-04T08:38:58.084Z,15.20
2019-04-04T08:41:27.754Z,15.20
2019-04-04T08:43:57.146Z,15.30
2019-04-04T08:46:26.775Z,15.50
2019-04-04T08:48:56.610Z,15.30
2019-04-04T08:51:26.579Z,15.50
2019-04-04T08:53:56.175Z,15.60
2019-04-04T08:56:25.559Z,15.60
2019-04-04T08:58:55.304Z,15.80
2019-04-04T09:01:24.808Z,15.90
2019-04-04T09:03:55.585Z,16.20
2019-04-04T09:06:28.105Z,16.50
2019-04-04T09:09:00.373Z,16.70
2019-04-04T09:11:31.357Z,17.00
2019-04-04T09:14:00.784Z,17.20
2019-04-04T09:16:30.307Z,17.40
2019-04-04T09:18:59.765Z,17.70
2019-04-04T09:21:35.225Z,17.90
2019-04-04T09:24:07.084Z,18.00
2019-04-04T09:26:36.431Z,17.90
2019-04-04T09:29:06.116Z,17.70
2019-04-04T09:31:35.583Z,17.60
2019-04-04T09:34:05.183Z,17.60
2019-04-04T09:36:34.598Z,17.60
2019-04-04T09:39:06.437Z,17.70
2019-04-04T09:41:36.179Z,17.80
2019-04-04T09:44:08.353Z,17.90
2019-04-04T09:46:39.627Z,18.20
2019-04-04T09:49:09.197Z,18.30
2019-04-04T09:51:38.698Z,18.70
2019-04-04T09:54:08.133Z,19.10
2019-04-04T09:56:37.868Z,19.50
2019-04-04T09:59:07.147Z,19.80
2019-04-04T10:01:36.760Z,20.00
2019-04-04T10:04:06.198Z,20.30
2019-04-04T10:06:35.840Z,20.40
2019-04-04T10:09:15.545Z,20.60
2019-04-04T10:11:38.762Z,20.80
2019-04-04T10:14:08.426Z,20.90
2019-04-04T10:16:37.887Z,21.10
2019-04-04T10:19:07.442Z,21.60
2019-04-04T10:21:36.895Z,21.80
2019-04-04T10:24:06.431Z,22.00
2019-04-04T10:26:35.900Z,22.10
2019-04-04T10:29:05.415Z,22.10
2019-04-04T10:31:35.106Z,22.10
2019-04-04T10:34:04.697Z,22.30
2019-04-04T10:36:34.211Z,22.30
2019-04-04T10:39:05.280Z,22.50
2019-04-04T10:41:34.965Z,22.60
2019-04-04T10:44:04.371Z,22.90
2019-04-04T10:46:33.837Z,23.00
2019-04-04T10:49:03.328Z,23.10
2019-04-04T10:51:32.734Z,23.20
2019-04-04T10:54:02.738Z,23.10
2019-04-04T10:56:32.555Z,22.90
2019-04-04T10:59:02.347Z,22.80
2019-04-04T11:01:31.919Z,22.50
2019-04-04T11:04:01.926Z,22.10
2019-04-04T11:06:31.390Z,22.00
2019-04-04T11:09:00.856Z,21.80
2019-04-04T11:11:30.282Z,21.60
2019-04-04T11:14:01.514Z,21.60
2019-04-04T11:16:31.003Z,21.60
2019-04-04T11:19:00.574Z,21.50
2019-04-04T11:21:30.455Z,21.40
2019-04-04T11:23:59.970Z,21.30
2019-04-04T11:26:29.561Z,21.20
2019-04-04T11:28:59.012Z,20.90
2019-04-04T11:31:28.797Z,20.90
2019-04-04T11:33:58.333Z,20.80
2019-04-04T11:36:27.757Z,20.70
2019-04-04T11:38:57.193Z,20.70
2019-04-04T11:41:26.702Z,20.60
2019-04-04T11:43:56.264Z,20.40
2019-04-04T11:46:28.720Z,20.40
2019-04-04T11:48:58.251Z,20.30
2019-04-04T11:51:27.884Z,20.20
2019-04-04T11:53:57.461Z,20.10
2019-04-04T11:56:27.004Z,20.10
2019-04-04T11:58:57.458Z,20.00
2019-04-04T12:01:27.829Z,20.10
2019-04-04T12:03:57.206Z,20.30
2019-04-04T12:06:26.720Z,20.50
2019-04-04T12:08:56.164Z,20.40
2019-04-04T12:11:25.656Z,20.30
2019-04-04T12:13:57.896Z,20.20
2019-04-04T12:16:27.430Z,20.10
2019-04-04T12:18:57.002Z,20.00
2019-04-04T12:21:26.516Z,20.10
2019-04-04T12:23:55.986Z,20.00
2019-04-04T12:26:25.528Z,19.90
2019-04-04T12:28:56.283Z,19.90
2019-04-04T12:31:25.835Z,19.80
2019-04-04T12:33:55.378Z,19.80
2019-04-04T12:36:27.975Z,19.90
2019-04-04T12:38:58.002Z,19.80
2019-04-04T12:41:28.363Z,19.80
2019-04-04T12:43:58.054Z,19.70
2019-04-04T12:46:27.562Z,19.60
2019-04-04T12:48:57.037Z,19.60
2019-04-04T12:51:26.495Z,19.50
2019-04-04T12:53:57.515Z,19.40
2019-04-04T12:56:27.116Z,19.40
2019-04-04T12:58:56.698Z,19.40
2019-04-04T13:01:26.185Z,19.30
2019-04-04T13:03:55.795Z,19.30
2019-04-04T13:06:25.275Z,19.30
2019-04-04T13:08:55.130Z,19.30
2019-04-04T13:11:27.836Z,19.30
2019-04-04T13:13:57.294Z,19.30
2019-04-04T13:16:26.775Z,19.30
2019-04-04T13:18:56.271Z,19.20
2019-04-04T13:21:28.165Z,19.20
2019-04-04T13:23:57.605Z,19.20
2019-04-04T13:26:27.456Z,19.10
2019-04-04T13:28:57.171Z,19.10
2019-04-04T13:31:26.872Z,19.10
2019-04-04T13:33:56.603Z,19.10
2019-04-04T13:36:25.955Z,19.10
2019-04-04T13:38:55.485Z,19.10
2019-04-04T13:41:25.030Z,19.10
2019-04-04T13:43:54.875Z,19.10
2019-04-04T13:46:25.909Z,19.20
2019-04-04T13:48:55.422Z,19.20
2019-04-04T13:51:25.649Z,19.10
2019-04-04T13:53:55.775Z,19.10
2019-04-04T13:56:25.190Z,19.00
2019-04-04T13:58:54.774Z,18.90
2019-04-04T14:01:25.485Z,18.90
2019-04-04T14:03:55.115Z,18.90
2019-04-04T14:06:24.551Z,18.80
2019-04-04T14:08:54.179Z,18.80
2019-04-04T14:11:23.694Z,18.80
2019-04-04T14:13:53.932Z,18.80
2019-04-04T14:16:23.439Z,18.70
2019-04-04T14:18:52.764Z,18.80
2019-04-04T14:21:22.166Z,18.80
2019-04-04T14:23:52.925Z,18.80
2019-04-04T14:26:22.944Z,18.80
2019-04-04T14:28:52.422Z,18.70
2019-04-04T14:31:22.216Z,18.70
2019-04-04T14:33:51.802Z,18.70
2019-04-04T14:36:21.347Z,18.70
2019-04-04T14:38:50.779Z,18.70
2019-04-04T14:41:20.321Z,18.70
2019-04-04T14:43:51.919Z,18.60
2019-04-04T14:46:21.387Z,18.60
2019-04-04T14:48:50.941Z,18.60
2019-04-04T14:51:20.381Z,18.60
2019-04-04T14:53:49.995Z,18.60
2019-04-04T14:56:19.486Z,18.60
2019-04-04T14:58:49.062Z,18.50
2019-04-04T15:01:18.910Z,18.40
2019-04-04T15:03:50.206Z,18.50
2019-04-04T15:06:19.622Z,18.40
2019-04-04T15:08:50.156Z,18.30
2019-04-04T15:11:24.219Z,18.30
2019-04-04T15:13:52.803Z,18.30
2019-04-04T15:16:22.350Z,18.20
2019-04-04T15:18:53.418Z,18.20
2019-04-04T15:21:22.932Z,18.20
2019-04-04T15:23:52.439Z,18.20
2019-04-04T15:26:21.965Z,18.10
2019-04-04T15:29:03.914Z,18.10
2019-04-04T15:31:34.461Z,18.10
2019-04-04T15:34:54.892Z,18.10
2019-04-04T15:37:24.315Z,18.00
2019-04-04T15:53:39.044Z,17.70
2019-04-04T15:56:08.697Z,17.70
2019-04-04T15:58:38.210Z,17.60
2019-04-04T16:01:07.860Z,17.60
2019-04-04T16:03:37.381Z,17.60
2019-04-04T16:06:06.983Z,17.50
2019-04-04T16:08:36.709Z,17.50
2019-04-04T16:11:06.509Z,17.50
2019-04-04T16:13:36.739Z,17.40
2019-04-04T16:16:06.350Z,17.40
2019-04-04T16:18:38.139Z,17.40
2019-04-04T16:21:07.697Z,17.30
2019-04-04T16:23:37.254Z,17.30
2019-04-04T16:26:06.858Z,17.20
2019-04-04T16:28:36.286Z,17.20
2019-04-04T16:31:05.843Z,17.20
2019-04-04T16:33:35.323Z,17.20
2019-04-04T16:36:05.597Z,17.20
2019-04-04T16:38:35.177Z,17.10
2019-04-04T16:41:05.085Z,17.10
2019-04-04T16:43:34.535Z,17.00
2019-04-04T16:46:05.088Z,17.00
2019-04-04T16:48:34.697Z,17.00
2019-04-04T16:51:04.372Z,16.90
2019-04-04T16:53:34.208Z,17.00
2019-04-04T16:56:04.340Z,16.90
2019-04-04T16:58:33.785Z,16.90
2019-04-04T17:01:04.436Z,16.90
2019-04-04T17:03:34.434Z,16.90
2019-04-04T17:06:04.529Z,16.80
2019-04-04T17:08:33.980Z,16.80
2019-04-04T17:11:04.520Z,16.80
2019-04-04T17:13:34.362Z,16.70
2019-04-04T17:16:03.915Z,16.70
2019-04-04T17:18:33.546Z,16.60
2019-04-04T17:21:03.018Z,16.60
2019-04-04T17:23:32.548Z,16.50
2019-04-04T17:26:03.150Z,16.50
2019-04-04T17:28:33.012Z,16.40
2019-04-04T17:31:02.824Z,16.40
2019-04-04T17:33:33.502Z,16.40
2019-04-04T17:36:03.594Z,16.30
2019-04-04T17:38:33.446Z,16.30
2019-04-04T17:41:03.198Z,16.20
2019-04-04T17:43:32.931Z,16.10
2019-04-04T17:46:04.451Z,16.10
2019-04-04T17:48:34.619Z,16.10
2019-04-04T17:51:04.566Z,16.00
2019-04-04T17:53:34.444Z,16.00
2019-04-04T17:56:04.063Z,15.90
2019-04-04T17:58:33.682Z,15.90
2019-04-04T18:01:04.623Z,15.90
2019-04-04T18:03:37.672Z,15.80
2019-04-04T18:06:07.195Z,15.80
2019-04-04T18:08:36.740Z,15.70
2019-04-04T18:11:06.383Z,15.70
2019-04-04T18:13:36.594Z,15.60
2019-04-04T18:16:09.114Z,15.60
2019-04-04T18:18:38.698Z,15.60
2019-04-04T18:21:08.288Z,15.50
2019-04-04T18:23:37.921Z,15.50
2019-04-04T18:26:07.390Z,15.40
2019-04-04T18:28:39.358Z,15.40
2019-04-04T18:31:08.208Z,15.40
2019-04-04T18:33:37.949Z,15.30
2019-04-04T18:36:07.683Z,15.20
2019-04-04T18:38:37.691Z,15.20
2019-04-04T18:41:07.274Z,15.20
2019-04-04T18:43:37.327Z,15.10
2019-04-04T18:46:07.178Z,15.10
2019-04-04T18:48:36.658Z,15.10
2019-04-04T18:51:06.166Z,15.00
2019-04-04T18:53:36.015Z,15.00
2019-04-04T18:56:05.601Z,14.90
2019-04-04T18:58:35.096Z,14.90
2019-04-04T19:01:04.977Z,14.90
2019-04-04T19:03:34.572Z,14.80
2019-04-04T19:06:04.063Z,14.70
2019-04-04T19:08:33.501Z,14.70
2019-04-04T19:11:03.075Z,14.70
2019-04-04T19:13:43.767Z,14.70
2019-04-04T19:16:03.772Z,14.60
2019-04-04T19:18:33.529Z,14.60
2019-04-04T19:21:03.240Z,14.50
2019-04-04T19:23:33.274Z,14.50
2019-04-04T19:26:03.843Z,14.50
2019-04-04T19:28:35.530Z,14.50
2019-04-04T19:31:05.875Z,14.40
2019-04-04T19:33:35.466Z,14.40
2019-04-04T19:36:05.488Z,14.40
2019-04-04T19:38:36.056Z,14.30
2019-04-04T19:41:06.405Z,14.30
2019-04-04T19:43:36.210Z,14.20
2019-04-04T19:46:08.945Z,14.20
2019-04-04T19:48:38.355Z,14.10
2019-04-04T19:51:07.859Z,14.10
2019-04-04T19:53:37.380Z,14.10
2019-04-04T19:56:06.862Z,14.00
2019-04-04T19:58:36.469Z,14.00
2019-04-04T20:01:06.351Z,13.90
2019-04-04T20:03:35.959Z,13.90
2019-04-04T20:06:05.418Z,13.90
2019-04-04T20:08:35.321Z,13.90
2019-04-04T20:11:04.774Z,13.80
2019-04-04T20:13:34.205Z,13.80
2019-04-04T20:16:05.672Z,13.80
2019-04-04T20:18:35.333Z,13.70
2019-04-04T20:21:04.896Z,13.70
2019-04-04T20:23:34.826Z,13.70
2019-04-04T20:26:04.563Z,13.70
2019-04-04T20:28:36.694Z,13.60
2019-04-04T20:31:08.500Z,13.60
2019-04-04T20:33:38.059Z,13.50
2019-04-04T20:36:07.573Z,13.50
2019-04-04T20:38:37.182Z,13.50
2019-04-04T20:41:07.017Z,13.40
2019-04-04T20:43:43.285Z,13.40
2019-04-04T20:46:07.659Z,13.40
2019-04-04T20:48:37.581Z,13.40
2019-04-04T20:51:07.034Z,13.30
2019-04-04T20:53:36.737Z,13.30
2019-04-04T20:56:06.111Z,13.30
2019-04-04T20:58:37.585Z,13.30
2019-04-04T21:01:07.134Z,13.30
2019-04-04T21:03:36.582Z,13.20
2019-04-04T21:06:06.090Z,13.20
2019-04-04T21:08:36.937Z,13.20
2019-04-04T21:11:06.614Z,13.10
2019-04-04T21:13:36.215Z,13.20
2019-04-04T21:16:05.863Z,13.10
2019-04-04T21:18:35.192Z,13.10
2019-04-04T21:21:04.790Z,13.00
2019-04-04T21:23:34.239Z,13.00
2019-04-04T21:26:04.032Z,13.00
2019-04-04T21:28:33.700Z,13.00
2019-04-04T21:31:03.295Z,12.90
2019-04-04T21:33:33.002Z,12.90
2019-04-04T21:36:02.449Z,12.90
2019-04-04T21:38:31.988Z,12.90
2019-04-04T21:41:01.523Z,12.90
2019-04-04T21:43:31.004Z,12.90
2019-04-04T21:46:00.685Z,12.80
2019-04-04T21:48:30.112Z,12.80
2019-04-04T21:50:59.699Z,12.80
2019-04-04T21:53:29.223Z,12.80
2019-04-04T21:55:58.863Z,12.70
2019-04-04T21:58:28.470Z,12.70
2019-04-04T22:00:58.486Z,12.70
2019-04-04T22:03:28.019Z,12.70
2019-04-04T22:05:57.602Z,12.70
2019-04-04T22:08:27.217Z,12.70
2019-04-04T22:10:56.675Z,12.70
2019-04-04T22:13:28.854Z,12.70
2019-04-04T22:15:58.385Z,12.60
2019-04-04T22:18:27.809Z,12.60
2019-04-04T22:20:57.556Z,12.60
2019-04-04T22:23:26.981Z,12.60
2019-04-04T22:25:56.409Z,12.60
2019-04-04T22:28:25.759Z,12.60
2019-04-04T22:30:55.316Z,12.60
2019-04-04T22:33:24.701Z,12.50
2019-04-04T22:35:54.185Z,12.50
2019-04-04T22:38:23.643Z,12.50
2019-04-04T22:40:53.209Z,12.50
2019-04-04T22:43:24.987Z,12.50
2019-04-04T22:45:54.552Z,12.50
2019-04-04T22:48:23.962Z,12.50
2019-04-04T22:50:53.465Z,12.50
2019-04-04T22:53:23.123Z,12.50
2019-04-04T22:55:52.593Z,12.40
2019-04-04T22:58:28.100Z,12.40
2019-04-04T23:00:53.114Z,12.40
2019-04-04T23:03:23.422Z,12.40
2019-04-04T23:05:52.855Z,12.40
2019-04-04T23:08:22.246Z,12.40
2019-04-04T23:10:51.795Z,12.30
2019-04-04T23:13:21.228Z,12.30
2019-04-04T23:15:50.680Z,12.30
2019-04-04T23:18:20.052Z,12.30
2019-04-04T23:20:49.492Z,12.30
2019-04-04T23:23:18.915Z,12.20
2019-04-04T23:25:48.469Z,12.20
2019-04-04T23:28:17.945Z,12.20
2019-04-04T23:30:47.558Z,12.20
2019-04-04T23:33:17.006Z,12.20
2019-04-04T23:35:47.167Z,12.20
2019-04-04T23:38:16.815Z,12.20
2019-04-04T23:40:46.223Z,12.20
2019-04-04T23:43:15.621Z,12.20
2019-04-04T23:45:45.548Z,12.20
2019-04-04T23:48:15.244Z,12.20
2019-04-04T23:50:44.661Z,12.10
2019-04-04T23:53:14.099Z,12.10
2019-04-04T23:55:43.635Z,12.10
2019-04-04T23:58:13.275Z,12.20
